Time;durP1;ratioP1;P1;durP2;ratioP2;P2;SDS_P1;SDS_P2;PMS_P1;PMS_P2;Temp;Humidity;BMP_temperature;BMP_pressure;BME280_temperature;BME280_humidity;BME280_pressure;Samples;Min_cycle;Max_cycle;Signal;HPM_P1;HPM_P2
2021/06/18 00:35:03;;;;;;;7.93;6.50;;;21.10;97.30;;;;;;4922222;29;20532;-93
2021/06/18 00:37:29;;;;;;;8.23;7.20;;;21.10;97.30;;;;;;4907484;29;20531;-94
2021/06/18 00:39:55;;;;;;;10.03;7.27;;;21.00;97.30;;;;;;4906789;29;20978;-94
2021/06/18 00:42:21;;;;;;;11.23;7.00;;;20.90;97.30;;;;;;4908440;29;20504;-94
2021/06/18 00:44:47;;;;;;;9.57;7.00;;;20.80;97.30;;;;;;4908225;29;20488;-94
2021/06/18 00:47:20;;;;;;;10.20;6.80;;;20.80;97.30;;;;;;4907272;29;20188;-94
2021/06/18 00:49:49;;;;;;;8.27;6.67;;;20.80;97.30;;;;;;4907594;29;20188;-92
2021/06/18 00:52:16;;;;;;;7.57;7.00;;;20.70;97.30;;;;;;4907521;29;20427;-95
2021/06/18 00:54:44;;;;;;;8.97;6.83;;;20.70;97.30;;;;;;4907941;29;20451;-94
2021/06/18 00:57:09;;;;;;;9.00;6.87;;;20.70;97.30;;;;;;4907082;29;20563;-94
2021/06/18 00:59:37;;;;;;;8.20;7.10;;;20.60;97.30;;;;;;4907302;29;20452;-94
2021/06/18 01:02:03;;;;;;;11.97;6.90;;;20.60;97.30;;;;;;4907378;29;20191;-95
2021/06/18 01:04:30;;;;;;;9.63;7.07;;;20.50;97.30;;;;;;4907523;29;20472;-93
2021/06/18 01:07:07;;;;;;;9.27;7.03;;;20.40;97.30;;;;;;4907263;29;20188;-94
2021/06/18 01:09:42;;;;;;;10.00;7.27;;;20.30;97.30;;;;;;4907952;29;20444;-94
2021/06/18 01:12:14;;;;;;;8.90;7.27;;;20.30;97.30;;;;;;4907619;29;20417;-94
2021/06/18 01:15:12;;;;;;;8.83;7.00;;;20.20;97.30;;;;;;4907759;29;20455;-94
2021/06/18 01:17:55;;;;;;;11.60;7.00;;;20.20;97.30;;;;;;4907917;29;20421;-95
2021/06/18 01:20:42;;;;;;;6.90;5.90;;;20.10;97.30;;;;;;4907689;29;20413;-93
2021/06/18 01:23:35;;;;;;;12.03;7.23;;;20.10;97.30;;;;;;4907399;29;20420;-95
2021/06/18 01:26:19;;;;;;;9.60;7.37;;;20.10;97.30;;;;;;4907820;29;20938;-94
2021/06/18 01:28:52;;;;;;;11.67;7.73;;;20.10;97.30;;;;;;4907666;29;20427;-95
2021/06/18 01:31:23;;;;;;;9.93;7.47;;;20.10;97.30;;;;;;4907508;29;20420;-95
2021/06/18 01:33:59;;;;;;;9.33;6.63;;;20.10;97.30;;;;;;4906659;29;20476;-94
2021/06/18 01:36:26;;;;;;;11.00;7.47;;;20.20;97.30;;;;;;4905944;29;20456;-94
2021/06/18 01:38:55;;;;;;;9.80;6.83;;;20.20;97.30;;;;;;4905958;29;20504;-94
2021/06/18 01:41:24;;;;;;;8.80;6.80;;;20.20;97.30;;;;;;4905987;29;20428;-95
2021/06/18 01:43:53;;;;;;;12.10;7.57;;;20.10;97.30;;;;;;4904735;29;20413;-94
2021/06/18 01:46:23;;;;;;;7.60;6.30;;;20.10;97.30;;;;;;4904712;29;20439;-94
2021/06/18 01:48:56;;;;;;;8.73;6.77;;;20.00;97.30;;;;;;4904707;29;20441;-95
2021/06/18 01:51:23;;;;;;;9.60;6.30;;;19.90;97.30;;;;;;4904278;29;20424;-94
2021/06/18 01:53:50;;;;;;;12.77;7.87;;;19.80;97.30;;;;;;4903951;29;20499;-94
2021/06/18 01:56:18;;;;;;;11.10;7.30;;;19.80;97.30;;;;;;4904142;29;20460;-94
2021/06/18 01:58:48;;;;;;;14.30;7.57;;;19.80;97.30;;;;;;4904658;29;20483;-94
2021/06/18 02:01:15;;;;;;;14.63;7.37;;;19.80;97.30;;;;;;4904920;29;20440;-93
2021/06/18 02:03:43;;;;;;;11.00;6.77;;;19.80;97.30;;;;;;4903735;29;20421;-94
2021/06/18 02:06:11;;;;;;;10.50;7.27;;;19.70;97.30;;;;;;4904449;29;20425;-94
2021/06/18 02:08:38;;;;;;;8.37;7.10;;;19.70;97.30;;;;;;4904877;29;20421;-92
2021/06/18 02:11:04;;;;;;;12.10;6.67;;;19.70;97.30;;;;;;4905362;29;20460;-94
2021/06/18 02:13:32;;;;;;;10.20;6.97;;;19.60;97.30;;;;;;4905843;29;20439;-94
2021/06/18 02:15:59;;;;;;;10.60;7.33;;;19.60;97.30;;;;;;4905423;29;20213;-94
2021/06/18 02:18:28;;;;;;;10.73;6.80;;;19.60;97.30;;;;;;4906085;29;20848;-94
2021/06/18 02:20:57;;;;;;;7.73;6.40;;;19.50;97.30;;;;;;4920488;29;20436;-94
2021/06/18 02:23:27;;;;;;;9.40;6.73;;;19.50;97.30;;;;;;4910694;29;20425;-92
2021/06/18 02:25:53;;;;;;;8.50;7.07;;;19.40;97.30;;;;;;4904669;29;20448;-93
2021/06/18 02:28:23;;;;;;;12.37;7.33;;;19.40;97.30;;;;;;4905074;29;20511;-94
2021/06/18 02:30:52;;;;;;;8.20;6.90;;;19.40;97.30;;;;;;4904906;29;20421;-94
2021/06/18 02:33:18;;;;;;;16.83;7.40;;;19.30;97.30;;;;;;4904618;29;20464;-94
2021/06/18 02:35:45;;;;;;;14.23;7.73;;;19.30;97.30;;;;;;4904415;29;20583;-93
2021/06/18 02:38:14;;;;;;;9.63;6.90;;;19.30;97.30;;;;;;4889904;29;20192;-92
2021/06/18 02:40:43;;;;;;;17.60;7.93;;;19.30;97.30;;;;;;4906017;29;20480;-92
2021/06/18 02:43:09;;;;;;;9.07;6.80;;;19.30;97.30;;;;;;4905613;29;20427;-95
2021/06/18 02:45:37;;;;;;;8.93;6.67;;;19.30;97.30;;;;;;4905934;29;20508;-93
2021/06/18 02:48:14;;;;;;;10.50;7.50;;;19.30;97.30;;;;;;4904886;29;20829;-93
2021/06/18 02:50:53;;;;;;;9.80;7.33;;;19.30;97.30;;;;;;4905155;29;20511;-92
2021/06/18 02:53:34;;;;;;;14.00;7.30;;;19.30;97.30;;;;;;4905953;29;20432;-93
2021/06/18 02:56:13;;;;;;;15.10;8.00;;;19.30;97.30;;;;;;4905051;29;20476;-93
2021/06/18 02:58:52;;;;;;;13.63;8.10;;;19.30;97.30;;;;;;4904883;29;20463;-93
2021/06/18 03:01:23;;;;;;;16.50;7.53;;;19.30;97.30;;;;;;4904023;29;20421;-92
2021/06/18 03:03:52;;;;;;;11.27;7.57;;;19.20;97.30;;;;;;4903119;29;20420;-93
2021/06/18 03:06:19;;;;;;;10.63;7.63;;;19.10;97.30;;;;;;4903731;29;20440;-93
2021/06/18 03:08:57;;;;;;;12.00;8.13;;;19.10;97.30;;;;;;4904365;29;20428;-93
2021/06/18 03:11:29;;;;;;;11.63;7.47;;;19.10;97.30;;;;;;4904897;29;20427;-93
2021/06/18 03:13:57;;;;;;;11.43;7.43;;;19.00;97.30;;;;;;4906372;29;20452;-93
2021/06/18 03:16:28;;;;;;;11.50;7.70;;;19.00;97.30;;;;;;4906061;29;21236;-94
2021/06/18 03:18:56;;;;;;;14.03;7.87;;;18.90;97.30;;;;;;4906158;29;20416;-93
2021/06/18 03:21:24;;;;;;;11.90;7.77;;;18.90;97.30;;;;;;4906134;29;20432;-92
2021/06/18 03:23:51;;;;;;;11.00;8.10;;;18.80;97.30;;;;;;4903124;29;20417;-93
2021/06/18 03:26:17;;;;;;;11.87;8.60;;;18.80;97.30;;;;;;4902741;29;20437;-90
2021/06/18 03:32:37;;;;;;;14.67;7.57;;;18.80;97.30;;;;;;4889190;29;20425;-92
2021/06/18 03:35:39;;;;;;;10.63;7.47;;;18.80;97.30;;;;;;4938068;23;20506;-93
2021/06/18 03:38:34;;;;;;;13.37;7.10;;;18.90;97.30;;;;;;4921939;29;20526;-92
2021/06/18 03:41:14;;;;;;;12.20;8.00;;;18.90;97.30;;;;;;4897572;29;21118;-93
2021/06/18 03:43:39;;;;;;;10.03;7.20;;;18.90;97.30;;;;;;4921930;29;20428;-93
2021/06/18 03:46:09;;;;;;;11.33;8.80;;;18.80;97.30;;;;;;4922394;29;20457;-93
2021/06/18 03:48:44;;;;;;;12.20;8.20;;;18.90;97.30;;;;;;4923351;29;20315;-93
2021/06/18 03:51:12;;;;;;;10.33;7.57;;;18.90;97.30;;;;;;4923014;29;20430;-91
2021/06/18 03:53:40;;;;;;;13.77;8.00;;;18.90;97.30;;;;;;4923206;29;20420;-92
2021/06/18 03:56:23;;;;;;;10.70;7.70;;;18.90;97.30;;;;;;4922745;29;20458;-93
2021/06/18 03:58:49;;;;;;;12.27;7.97;;;18.90;97.30;;;;;;4923227;29;21020;-93
2021/06/18 04:01:28;;;;;;;13.87;8.53;;;18.90;97.30;;;;;;4926427;29;20415;-93
2021/06/18 04:03:59;;;;;;;14.07;8.00;;;18.90;97.30;;;;;;4926935;29;20439;-92
2021/06/18 04:06:35;;;;;;;16.40;8.17;;;19.00;97.30;;;;;;4944083;29;20416;-92
2021/06/18 04:09:03;;;;;;;15.43;7.70;;;19.00;97.30;;;;;;4927123;29;20418;-93
2021/06/18 04:11:33;;;;;;;11.13;6.90;;;19.10;97.30;;;;;;4926578;29;20444;-94
2021/06/18 04:14:07;;;;;;;19.50;8.07;;;19.10;97.30;;;;;;4927425;29;20451;-92
2021/06/18 04:16:33;;;;;;;12.27;7.87;;;19.10;97.30;;;;;;4925675;29;20510;-93
2021/06/18 04:19:02;;;;;;;10.37;7.30;;;19.20;97.30;;;;;;4926637;29;20424;-92
2021/06/18 04:21:30;;;;;;;14.03;8.00;;;19.30;97.30;;;;;;4925480;29;20275;-93
2021/06/18 04:23:58;;;;;;;10.27;7.50;;;19.30;97.30;;;;;;4924172;29;21034;-93
2021/06/18 04:26:24;;;;;;;13.57;7.53;;;19.40;97.30;;;;;;4924818;29;21053;-93
2021/06/18 04:28:50;;;;;;;10.27;7.50;;;19.40;97.30;;;;;;4926002;29;20415;-92
2021/06/18 04:31:16;;;;;;;16.30;7.77;;;19.50;97.30;;;;;;4924925;29;20180;-93
2021/06/18 04:33:41;;;;;;;19.23;7.93;;;19.60;97.30;;;;;;4923692;29;20514;-93
2021/06/18 04:36:07;;;;;;;13.03;7.37;;;19.60;97.30;;;;;;4925343;29;20223;-93
2021/06/18 04:38:35;;;;;;;12.73;7.70;;;19.70;97.30;;;;;;4924675;29;20184;-92
2021/06/18 04:41:01;;;;;;;13.73;7.47;;;19.70;97.30;;;;;;4926116;29;20184;-94
2021/06/18 04:43:27;;;;;;;8.67;7.80;;;19.70;97.30;;;;;;4924834;29;20797;-92
2021/06/18 04:45:52;;;;;;;10.87;7.40;;;19.80;97.30;;;;;;4924884;29;20246;-92
2021/06/18 04:48:19;;;;;;;12.23;7.37;;;19.80;97.30;;;;;;4925117;29;20219;-93
2021/06/18 04:51:55;;;;;;;11.63;7.83;;;19.80;97.30;;;;;;4926043;29;20186;-93
2021/06/18 05:04:35;;;;;;;9.93;7.70;;;20.10;97.30;;;;;;4931986;29;20478;-70
2021/06/18 05:07:01;;;;;;;9.27;7.03;;;20.20;97.30;;;;;;4932116;29;20795;-70
2021/06/18 05:09:26;;;;;;;13.33;7.93;;;20.30;97.30;;;;;;4916191;29;20557;-69
2021/06/18 05:11:52;;;;;;;7.80;6.70;;;20.30;97.30;;;;;;4919646;29;20204;-70
2021/06/18 05:14:17;;;;;;;7.70;7.03;;;20.40;97.30;;;;;;4898708;29;20257;-69
2021/06/18 05:16:44;;;;;;;9.27;6.47;;;20.50;97.30;;;;;;4915657;29;20211;-70
2021/06/18 05:19:10;;;;;;;11.93;7.67;;;20.50;97.30;;;;;;4916308;29;20192;-69
2021/06/18 05:21:36;;;;;;;8.23;7.30;;;20.60;97.30;;;;;;4929609;23;20802;-69
2021/06/18 05:24:02;;;;;;;7.87;7.00;;;20.70;97.30;;;;;;4890227;29;20412;-69
2021/06/18 05:26:32;;;;;;;9.43;7.43;;;20.70;97.30;;;;;;4915635;29;20402;-69
2021/06/18 05:28:58;;;;;;;13.50;7.47;;;20.80;97.30;;;;;;4915477;29;20839;-69
2021/06/18 05:31:24;;;;;;;10.43;7.80;;;20.80;97.30;;;;;;4914942;29;20433;-69
2021/06/18 05:33:50;;;;;;;10.63;7.37;;;20.90;97.30;;;;;;4915028;29;20405;-67
2021/06/18 05:36:15;;;;;;;12.47;7.80;;;20.90;97.30;;;;;;4915410;29;20212;-69
2021/06/18 05:38:41;;;;;;;10.07;6.60;;;21.00;97.30;;;;;;4898224;29;20180;-69
2021/06/18 05:41:06;;;;;;;10.77;6.97;;;21.00;97.30;;;;;;4915446;29;20203;-68
2021/06/18 05:43:32;;;;;;;9.60;6.20;;;21.10;97.30;;;;;;4897506;29;20172;-69
2021/06/18 05:45:57;;;;;;;11.80;7.33;;;21.20;97.30;;;;;;4897872;29;20181;-69
2021/06/18 05:48:23;;;;;;;9.20;6.00;;;21.20;97.30;;;;;;4897272;29;20183;-70
2021/06/18 05:50:51;;;;;;;8.77;6.60;;;21.30;97.30;;;;;;4915117;29;20207;-69
2021/06/18 05:53:18;;;;;;;10.43;6.60;;;21.40;97.30;;;;;;4898320;29;20656;-68
2021/06/18 05:55:44;;;;;;;11.60;6.73;;;21.50;97.30;;;;;;4896821;29;20467;-69
2021/06/18 05:58:10;;;;;;;11.17;6.73;;;21.50;97.30;;;;;;4915123;29;20432;-68
2021/06/18 06:00:36;;;;;;;10.60;6.70;;;21.60;97.30;;;;;;4897562;29;20440;-68
2021/06/18 06:03:01;;;;;;;11.00;6.57;;;21.70;97.30;;;;;;4897999;29;20256;-69
2021/06/18 06:05:27;;;;;;;12.87;7.50;;;21.70;97.30;;;;;;4897574;29;20180;-69
2021/06/18 06:07:53;;;;;;;13.37;7.00;;;21.80;97.30;;;;;;4897763;29;20586;-69
2021/06/18 06:10:19;;;;;;;9.60;6.80;;;21.90;97.30;;;;;;4914646;29;20168;-69
2021/06/18 06:12:45;;;;;;;12.53;7.27;;;22.00;97.30;;;;;;4914723;29;20440;-69
2021/06/18 06:15:10;;;;;;;6.63;5.70;;;22.10;97.30;;;;;;4897827;29;20188;-69
2021/06/18 06:17:36;;;;;;;8.33;7.20;;;22.10;97.30;;;;;;4897421;29;20344;-69
2021/06/18 06:20:04;;;;;;;13.90;6.77;;;22.20;97.30;;;;;;4897534;29;20227;-69
2021/06/18 06:22:29;;;;;;;9.57;6.63;;;22.30;97.30;;;;;;4914167;29;20228;-69
2021/06/18 06:24:55;;;;;;;10.43;6.63;;;22.40;97.30;;;;;;4897270;29;20618;-69
2021/06/18 06:27:21;;;;;;;9.17;6.00;;;22.50;97.30;;;;;;4914472;29;20198;-70
2021/06/18 06:29:46;;;;;;;7.90;6.10;;;22.60;97.30;;;;;;4914171;29;20279;-69
2021/06/18 06:32:12;;;;;;;11.67;6.50;;;22.70;97.30;;;;;;4897542;29;20690;-69
2021/06/18 06:34:37;;;;;;;8.77;6.47;;;22.80;97.30;;;;;;4914120;29;20183;-69
2021/06/18 06:37:03;;;;;;;10.60;7.00;;;22.90;97.30;;;;;;4914412;29;20673;-69
2021/06/18 06:39:29;;;;;;;18.30;6.63;;;23.00;97.30;;;;;;4897182;29;20244;-69
2021/06/18 06:41:54;;;;;;;11.53;6.20;;;23.10;97.30;;;;;;4914336;29;20212;-69
2021/06/18 06:44:20;;;;;;;10.10;5.90;;;23.30;97.10;;;;;;4897108;29;20177;-69
2021/06/18 06:46:46;;;;;;;7.80;6.50;;;23.40;97.30;;;;;;4914520;29;20646;-69
2021/06/18 06:49:11;;;;;;;6.50;5.30;;;23.40;97.30;;;;;;4896787;29;20176;-69
2021/06/18 06:51:37;;;;;;;9.60;6.50;;;23.50;97.30;;;;;;4897179;29;20267;-69
2021/06/18 06:54:03;;;;;;;10.43;6.00;;;23.60;97.30;;;;;;4897176;29;20184;-69
2021/06/18 06:56:29;;;;;;;8.73;6.30;;;23.70;97.00;;;;;;4914135;29;20204;-68
2021/06/18 06:58:55;;;;;;;9.43;6.57;;;23.80;95.70;;;;;;4913898;29;20467;-69
2021/06/18 07:01:21;;;;;;;11.80;6.20;;;23.90;96.20;;;;;;4913810;29;20877;-69
2021/06/18 07:03:47;;;;;;;15.73;6.40;;;24.00;95.30;;;;;;4896696;29;20199;-69
2021/06/18 07:06:12;;;;;;;8.13;6.10;;;24.10;95.10;;;;;;4913754;29;20232;-69
2021/06/18 07:08:38;;;;;;;10.30;6.40;;;24.20;95.70;;;;;;4913835;29;20267;-69
2021/06/18 07:11:04;;;;;;;8.40;5.33;;;24.20;95.90;;;;;;4913943;29;20244;-69
2021/06/18 07:13:29;;;;;;;14.67;6.43;;;24.30;94.40;;;;;;4896685;29;20177;-69
2021/06/18 07:15:55;;;;;;;11.40;6.50;;;24.40;95.10;;;;;;4896642;29;20299;-69
2021/06/18 07:18:21;;;;;;;11.33;5.80;;;24.50;93.60;;;;;;4897027;29;20196;-69
2021/06/18 07:20:47;;;;;;;12.93;6.40;;;24.70;94.10;;;;;;4896670;29;20994;-69
2021/06/18 07:23:12;;;;;;;11.57;6.47;;;24.80;95.10;;;;;;4896686;29;20230;-69
2021/06/18 07:25:39;;;;;;;9.87;6.53;;;24.90;92.30;;;;;;4896630;29;20181;-69
2021/06/18 07:28:06;;;;;;;12.60;6.30;;;25.00;93.30;;;;;;4913539;29;20180;-69
2021/06/18 07:30:33;;;;;;;16.23;6.37;;;25.00;93.90;;;;;;4913636;29;20905;-69
2021/06/18 07:32:59;;;;;;;7.00;6.17;;;25.10;93.80;;;;;;4913746;29;20461;-69
2021/06/18 07:35:25;;;;;;;9.40;6.50;;;25.10;93.90;;;;;;4899248;29;20941;-69
2021/06/18 07:37:51;;;;;;;12.47;6.17;;;25.20;93.70;;;;;;4917476;29;20176;-69
2021/06/18 07:40:17;;;;;;;8.97;5.63;;;25.20;93.70;;;;;;4917197;29;20795;-69
2021/06/18 07:42:45;;;;;;;10.40;6.37;;;25.30;93.70;;;;;;4917552;29;20764;-69
2021/06/18 07:45:12;;;;;;;7.80;6.30;;;25.30;93.90;;;;;;4917328;29;20503;-69
2021/06/18 07:47:39;;;;;;;11.70;6.53;;;25.40;93.20;;;;;;4917171;29;20499;-69
2021/06/18 07:50:10;;;;;;;7.17;6.57;;;25.50;94.40;;;;;;4900231;29;20524;-69
2021/06/18 07:52:36;;;;;;;6.73;5.47;;;25.60;94.50;;;;;;4900246;29;20462;-69
2021/06/18 07:55:03;;;;;;;7.10;6.03;;;25.60;93.30;;;;;;4900056;29;20511;-69
2021/06/18 07:57:28;;;;;;;7.67;5.70;;;25.70;92.90;;;;;;4917029;29;20213;-69
2021/06/18 07:59:54;;;;;;;11.37;5.90;;;25.80;91.70;;;;;;4917021;29;20421;-69
2021/06/18 08:02:19;;;;;;;19.77;6.90;;;25.90;93.20;;;;;;4899894;29;20204;-69
2021/06/18 08:04:46;;;;;;;14.47;6.10;;;26.00;92.80;;;;;;4916864;29;20187;-69
2021/06/18 08:07:12;;;;;;;7.27;5.80;;;26.10;92.90;;;;;;4899823;29;20604;-69
2021/06/18 08:09:37;;;;;;;10.33;5.97;;;26.10;93.20;;;;;;4916909;29;20420;-69
2021/06/18 08:12:03;;;;;;;12.00;6.70;;;26.20;92.80;;;;;;4899917;29;20315;-69
2021/06/18 08:14:29;;;;;;;8.87;6.60;;;26.30;92.80;;;;;;4916652;29;20231;-69
2021/06/18 08:16:55;;;;;;;10.03;6.40;;;26.30;92.70;;;;;;4899710;29;20471;-69
2021/06/18 08:19:21;;;;;;;8.13;5.80;;;26.40;91.20;;;;;;4899774;29;20176;-69
2021/06/18 08:21:46;;;;;;;10.27;6.40;;;26.50;90.80;;;;;;4916388;29;20555;-69
2021/06/18 08:24:13;;;;;;;7.90;5.80;;;26.60;91.20;;;;;;4916643;29;20181;-69
2021/06/18 08:26:39;;;;;;;13.60;5.67;;;26.70;91.20;;;;;;4916568;29;20235;-69
2021/06/18 08:29:05;;;;;;;5.87;5.10;;;26.80;90.70;;;;;;4899476;29;20424;-69
2021/06/18 08:31:30;;;;;;;14.37;6.80;;;26.80;90.90;;;;;;4899484;29;20223;-70
2021/06/18 08:33:57;;;;;;;6.43;5.80;;;26.90;90.00;;;;;;4899417;29;20180;-70
2021/06/18 08:36:23;;;;;;;7.37;5.57;;;26.90;89.90;;;;;;4916145;29;20200;-70
2021/06/18 08:38:49;;;;;;;14.57;6.57;;;27.00;90.50;;;;;;4916402;29;20488;-70
2021/06/18 08:41:15;;;;;;;11.80;6.17;;;27.10;89.90;;;;;;4899475;29;20964;-70
2021/06/18 08:43:41;;;;;;;8.80;5.77;;;27.10;89.60;;;;;;4916468;29;20561;-70
2021/06/18 08:46:06;;;;;;;8.00;6.20;;;27.20;89.40;;;;;;4898927;29;20198;-70
2021/06/18 08:48:33;;;;;;;6.53;5.10;;;27.30;90.20;;;;;;4899397;29;20189;-70
2021/06/18 08:51:00;;;;;;;7.20;6.00;;;27.40;89.30;;;;;;4916036;29;20233;-70
2021/06/18 08:53:27;;;;;;;8.00;6.10;;;27.50;89.20;;;;;;4898837;29;20440;-70
2021/06/18 08:55:54;;;;;;;7.67;5.77;;;27.60;88.60;;;;;;4916117;29;20462;-70
2021/06/18 08:58:20;;;;;;;7.23;5.70;;;27.70;88.10;;;;;;4916100;29;20946;-70
2021/06/18 09:00:47;;;;;;;9.63;5.57;;;27.80;88.30;;;;;;4899007;29;20445;-70
2021/06/18 09:03:33;;;;;;;8.20;5.80;;;28.00;87.10;;;;;;4898881;29;20456;-70
2021/06/18 09:06:17;;;;;;;10.47;6.33;;;28.10;87.40;;;;;;4916100;29;20429;-70
2021/06/18 09:08:43;;;;;;;9.60;5.80;;;28.20;88.50;;;;;;4899070;29;20815;-70
2021/06/18 09:11:08;;;;;;;8.43;6.07;;;28.30;88.00;;;;;;4915622;29;20471;-70
2021/06/18 09:13:34;;;;;;;8.83;5.90;;;28.40;88.50;;;;;;4916087;29;20183;-70
2021/06/18 09:16:01;;;;;;;9.77;5.60;;;28.50;88.30;;;;;;4915401;29;20204;-70
2021/06/18 09:18:39;;;;;;;11.63;5.40;;;28.60;88.50;;;;;;4898807;29;20184;-70
2021/06/18 09:21:10;;;;;;;7.93;5.83;;;28.70;88.30;;;;;;4898430;29;20476;-70
2021/06/18 09:23:38;;;;;;;7.40;5.80;;;28.80;88.70;;;;;;4915652;29;20417;-70
2021/06/18 09:26:29;;;;;;;9.93;5.70;;;28.90;88.20;;;;;;4915536;29;20425;-70
2021/06/18 09:28:55;;;;;;;8.90;5.67;;;29.00;88.00;;;;;;4898406;29;20469;-71
2021/06/18 09:31:25;;;;;;;10.10;5.70;;;29.00;87.10;;;;;;4898362;29;20492;-71
2021/06/18 09:33:51;;;;;;;7.30;5.20;;;29.10;87.20;;;;;;4898327;29;20200;-70
2021/06/18 09:36:17;;;;;;;8.10;5.30;;;29.10;86.00;;;;;;4898469;29;21058;-71
2021/06/18 09:38:49;;;;;;;8.00;4.93;;;29.20;87.40;;;;;;4915679;29;20676;-70
2021/06/18 09:41:47;;;;;;;6.07;5.13;;;29.20;87.60;;;;;;4897910;29;20596;-71
2021/06/18 09:44:18;;;;;;;10.40;5.70;;;29.30;85.00;;;;;;4913455;29;20417;-71
2021/06/18 09:46:49;;;;;;;7.47;5.20;;;29.40;85.50;;;;;;4915198;29;20912;-70
2021/06/18 09:49:27;;;;;;;8.47;5.20;;;29.50;85.30;;;;;;4915401;29;20401;-70
2021/06/18 09:51:54;;;;;;;6.60;4.70;;;29.60;83.00;;;;;;4912515;29;20456;-70
2021/06/18 09:54:20;;;;;;;9.83;5.70;;;29.70;83.80;;;;;;4915133;29;20841;-70
2021/06/18 09:56:46;;;;;;;9.20;5.60;;;29.80;83.70;;;;;;4914758;29;20456;-70
2021/06/18 09:59:23;;;;;;;12.60;6.20;;;29.90;84.90;;;;;;4897952;29;20204;-70
2021/06/18 10:01:54;;;;;;;18.43;6.83;;;30.00;85.10;;;;;;4897940;29;20196;-70
2021/06/18 10:04:24;;;;;;;8.70;5.60;;;30.00;85.90;;;;;;4898019;29;20436;-70
2021/06/18 10:06:51;;;;;;;18.80;7.33;;;30.10;85.50;;;;;;4914947;29;20417;-70
2021/06/18 10:09:17;;;;;;;12.50;6.90;;;30.10;85.20;;;;;;4898098;29;20421;-71
2021/06/18 10:11:45;;;;;;;18.67;7.00;;;30.20;85.40;;;;;;4912636;29;20995;-70
2021/06/18 10:14:12;;;;;;;9.50;6.30;;;30.20;85.20;;;;;;4915094;29;20504;-71
2021/06/18 10:16:39;;;;;;;8.20;5.60;;;30.20;84.60;;;;;;4897519;29;20448;-70
2021/06/18 10:19:05;;;;;;;11.93;6.20;;;30.20;83.70;;;;;;4882408;29;20512;-70
2021/06/18 10:21:34;;;;;;;6.83;5.50;;;30.30;84.70;;;;;;4914284;29;20547;-71
2021/06/18 10:24:03;;;;;;;9.20;6.27;;;30.40;84.60;;;;;;4897425;29;20191;-71
2021/06/18 10:26:30;;;;;;;5.87;5.57;;;30.40;82.80;;;;;;4914378;29;20472;-71
2021/06/18 10:29:00;;;;;;;7.60;5.23;;;30.40;83.20;;;;;;4897368;29;20463;-71
2021/06/18 10:31:27;;;;;;;9.20;5.47;;;30.50;83.30;;;;;;4911962;29;20822;-71
2021/06/18 10:34:08;;;;;;;8.40;5.27;;;30.60;83.90;;;;;;4897284;29;20463;-71
2021/06/18 10:36:34;;;;;;;8.73;4.80;;;30.70;83.90;;;;;;4913406;29;20444;-71
2021/06/18 10:39:14;;;;;;;7.00;5.30;;;30.80;84.80;;;;;;4897340;29;20423;-71
2021/06/18 10:41:54;;;;;;;6.80;5.20;;;30.90;82.00;;;;;;4896919;29;20436;-71
2021/06/18 10:44:38;;;;;;;6.03;4.73;;;30.90;82.60;;;;;;4912208;29;20452;-71
2021/06/18 10:47:24;;;;;;;9.13;5.50;;;31.00;81.10;;;;;;4910526;29;20558;-71
2021/06/18 10:49:53;;;;;;;9.90;4.83;;;31.00;80.40;;;;;;4913789;29;20421;-71
2021/06/18 10:52:36;;;;;;;7.30;5.37;;;31.10;79.80;;;;;;4914071;29;20496;-71
2021/06/18 10:55:02;;;;;;;8.77;5.20;;;31.20;79.40;;;;;;4894031;29;20944;-70
2021/06/18 10:57:31;;;;;;;8.90;5.30;;;31.30;80.10;;;;;;4912016;29;20568;-71
2021/06/18 10:59:57;;;;;;;9.00;4.63;;;31.30;79.00;;;;;;4912337;29;20444;-71
2021/06/18 11:04:53;;;;;;;4.37;4.07;;;31.30;77.50;;;;;;4903825;29;20188;-71
2021/06/18 11:07:31;;;;;;;6.60;4.37;;;31.40;78.20;;;;;;4913789;29;20287;-71
2021/06/18 11:10:15;;;;;;;6.33;4.17;;;31.50;78.40;;;;;;4911983;29;20915;-70
2021/06/18 11:12:44;;;;;;;6.93;4.77;;;31.60;77.60;;;;;;4878177;29;20421;-71
2021/06/18 11:15:15;;;;;;;7.10;4.70;;;31.70;77.80;;;;;;4878434;29;20428;-70
2021/06/18 11:17:53;;;;;;;27.73;7.40;;;31.80;78.20;;;;;;4878063;29;20600;-71
2021/06/18 11:20:21;;;;;;;11.60;7.13;;;31.90;79.00;;;;;;4898319;29;20420;-72
2021/06/18 11:25:52;;;;;;;8.70;5.00;;;32.00;76.90;;;;;;4912228;29;20548;-68
2021/06/18 11:28:21;;;;;;;9.30;4.63;;;32.10;76.90;;;;;;4895054;29;20465;-68
2021/06/18 11:30:53;;;;;;;8.23;5.07;;;32.10;76.00;;;;;;4914135;29;20797;-68
2021/06/18 11:33:40;;;;;;;7.13;4.80;;;32.10;74.50;;;;;;4914078;29;20440;-68
2021/06/18 11:36:07;;;;;;;16.20;5.50;;;32.10;74.90;;;;;;4897173;29;20495;-67
2021/06/18 11:38:34;;;;;;;16.83;6.10;;;32.20;74.70;;;;;;4913845;29;20492;-68
2021/06/18 11:41:04;;;;;;;7.43;4.10;;;32.20;75.00;;;;;;4896987;29;20447;-68
2021/06/18 11:43:30;;;;;;;9.43;4.67;;;32.20;75.70;;;;;;4914036;29;20488;-68
2021/06/18 11:45:57;;;;;;;6.70;3.60;;;32.30;76.90;;;;;;4897214;29;20431;-68
2021/06/18 11:48:22;;;;;;;4.80;3.57;;;32.30;74.70;;;;;;4896906;29;20769;-68
2021/06/18 11:50:49;;;;;;;43.47;8.40;;;32.30;74.50;;;;;;4896887;29;21035;-69
2021/06/18 11:53:17;;;;;;;6.77;5.00;;;32.40;73.90;;;;;;4913936;29;20181;-69
2021/06/18 11:55:43;;;;;;;7.77;4.17;;;32.40;73.50;;;;;;4896862;29;20517;-68
2021/06/18 11:58:33;;;;;;;5.47;4.10;;;32.50;73.10;;;;;;4913732;29;20440;-69
2021/06/18 12:01:12;;;;;;;6.50;4.00;;;32.60;72.80;;;;;;4903893;29;20552;-66
2021/06/18 12:03:38;;;;;;;5.40;3.43;;;32.60;72.90;;;;;;4912474;29;20855;-66
2021/06/18 12:06:18;;;;;;;7.07;4.50;;;32.70;74.40;;;;;;4913727;29;20460;-66
2021/06/18 12:09:19;;;;;;;4.20;3.97;;;32.80;76.20;;;;;;4913346;29;20507;-67
2021/06/18 12:11:46;;;;;;;3.77;3.50;;;32.90;73.80;;;;;;4913278;29;20446;-66
2021/06/18 12:14:14;;;;;;;4.07;3.63;;;33.10;73.90;;;;;;4908572;29;20425;-69
2021/06/18 12:16:45;;;;;;;4.67;3.73;;;33.10;73.30;;;;;;4896367;29;20488;-67
2021/06/18 12:19:31;;;;;;;5.13;3.90;;;33.10;70.60;;;;;;4913408;29;20464;-67
2021/06/18 12:22:01;;;;;;;9.03;4.47;;;33.10;71.30;;;;;;4896478;29;21050;-67
2021/06/18 12:24:35;;;;;;;4.67;3.60;;;33.10;73.70;;;;;;4916625;29;20451;-67
2021/06/18 12:27:03;;;;;;;7.10;4.07;;;33.20;72.50;;;;;;4916841;29;20429;-68
2021/06/18 12:29:30;;;;;;;4.57;3.93;;;33.30;74.70;;;;;;4899551;29;21201;-67
2021/06/18 12:32:00;;;;;;;4.37;4.03;;;33.40;79.20;;;;;;4916481;29;20439;-67
2021/06/18 12:34:25;;;;;;;5.07;4.10;;;33.60;78.50;;;;;;4916752;29;20504;-66
2021/06/18 12:37:06;;;;;;;6.87;4.20;;;33.70;74.40;;;;;;4916360;29;20911;-69
2021/06/18 12:39:57;;;;;;;3.77;3.57;;;33.80;74.20;;;;;;4898838;29;20648;-69
2021/06/18 12:42:26;;;;;;;3.70;3.50;;;33.80;73.80;;;;;;4892074;29;20436;-69
2021/06/18 12:45:10;;;;;;;4.80;4.50;;;33.90;74.70;;;;;;4899447;29;20428;-69
2021/06/18 12:47:37;;;;;;;5.50;3.83;;;34.00;73.30;;;;;;4915707;29;20404;-66
2021/06/18 12:50:21;;;;;;;4.83;3.83;;;34.00;71.50;;;;;;4916704;29;20416;-69
2021/06/18 12:53:08;;;;;;;5.60;4.00;;;34.10;74.70;;;;;;4914345;29;20451;-69
2021/06/18 12:55:38;;;;;;;5.63;3.60;;;34.20;72.30;;;;;;4915256;29;20444;-69
2021/06/18 12:58:08;;;;;;;3.93;3.67;;;34.20;69.00;;;;;;4899290;29;20421;-69
2021/06/18 13:00:39;;;;;;;6.97;3.90;;;34.30;69.30;;;;;;4915958;29;20405;-69
2021/06/18 13:03:06;;;;;;;4.40;3.93;;;34.40;71.10;;;;;;4891980;29;20508;-69
2021/06/18 13:05:31;;;;;;;3.83;3.50;;;34.40;70.50;;;;;;4915409;29;20948;-70
2021/06/18 13:07:57;;;;;;;4.63;3.60;;;34.50;71.80;;;;;;4898797;29;20429;-69
2021/06/18 13:10:35;;;;;;;3.80;3.60;;;34.60;72.10;;;;;;4914994;29;20711;-69
2021/06/18 13:13:01;;;;;;;4.40;3.67;;;34.60;72.60;;;;;;4915739;29;20188;-69
2021/06/18 13:15:29;;;;;;;3.87;3.67;;;34.70;69.30;;;;;;4914886;29;20424;-68
2021/06/18 13:17:56;;;;;;;4.93;3.70;;;34.80;72.50;;;;;;4892696;29;20204;-66
2021/06/18 13:20:36;;;;;;;5.80;3.90;;;34.80;71.30;;;;;;4898371;29;20423;-66
2021/06/18 13:23:27;;;;;;;5.77;3.67;;;34.90;72.30;;;;;;4915054;29;20507;-66
2021/06/18 13:26:11;;;;;;;3.77;3.60;;;35.00;73.30;;;;;;4899517;29;20448;-66
2021/06/18 13:28:48;;;;;;;5.23;4.10;;;35.20;73.70;;;;;;4915798;29;20754;-66
2021/06/18 13:31:22;;;;;;;4.60;4.30;;;35.30;71.00;;;;;;4916284;29;20739;-66
2021/06/18 13:33:52;;;;;;;3.83;3.67;;;35.30;71.40;;;;;;4899887;29;20445;-66
2021/06/18 13:36:33;;;;;;;3.90;3.70;;;35.40;72.50;;;;;;4916675;29;21042;-66
2021/06/18 13:39:22;;;;;;;3.90;3.70;;;35.40;69.80;;;;;;4916496;29;20939;-67
2021/06/18 13:41:48;;;;;;;7.73;3.73;;;35.40;66.00;;;;;;4905669;29;20456;-76
2021/06/18 13:44:14;;;;;;;4.43;3.80;;;35.40;70.10;;;;;;4898637;29;20580;-66
2021/06/18 13:46:40;;;;;;;5.10;3.77;;;35.60;70.10;;;;;;4899148;29;20456;-66
2021/06/18 13:49:07;;;;;;;4.90;3.70;;;35.70;68.90;;;;;;4915451;29;20270;-66
2021/06/18 13:51:33;;;;;;;4.90;3.80;;;35.70;70.60;;;;;;4897443;29;21015;-67